Terminal Aerodrome Forecast
Issued by NWS Cleveland, OH

Home | Current Version | Previous Version | Text Only | Print | Product List | Glossary Off
Versions: 1 2 3 4 5 6 7 8 9 10 11 12 13 14 15 16 17 18 19 20 21 22 23 24 25 26 27

000
FTUS41 KCLE 142100 AAA
TAFCLE
TAF AMD
KCLE 142152Z 1422/1524 01005KT P6SM SCT045
     FM150200 12003KT P6SM SCT045 BKN250
     FM151500 22006KT P6SM BKN040 OVC100
     FM152100 24010KT 5SM -SHRA OVC025=

USA.gov is the U.S. government's official web portal to all federal, state and local government web resources and services.